Time;durP1;ratioP1;P1;durP2;ratioP2;P2;SDS_P1;SDS_P2;PMS_P1;PMS_P2;Temp;Humidity;BMP_temperature;BMP_pressure;BME280_temperature;BME280_humidity;BME280_pressure;Samples;Min_cycle;Max_cycle;Signal;HPM_P1;HPM_P2
2022/09/24 04:00:53;;;;;;;9.43;7.13;;;12.30;99.90;;;;;;5726901;23;20888;-72
2022/09/24 04:03:21;;;;;;;8.50;7.70;;;12.30;99.90;;;;;;4928219;29;20502;-72
2022/09/24 04:05:48;;;;;;;8.57;6.13;;;12.40;99.90;;;;;;4927459;29;20462;-73
2022/09/24 04:08:15;;;;;;;8.50;6.70;;;12.40;99.90;;;;;;4928693;29;20462;-73
2022/09/24 04:10:44;;;;;;;14.93;7.37;;;12.40;99.90;;;;;;4923992;29;20832;-73
2022/09/24 04:13:11;;;;;;;8.33;7.53;;;12.30;99.90;;;;;;4909219;29;20459;-73
2022/09/24 04:15:38;;;;;;;7.60;6.80;;;12.30;99.90;;;;;;4908465;29;20473;-73
2022/09/24 04:18:07;;;;;;;9.20;6.73;;;12.30;99.90;;;;;;4909114;29;20948;-73
2022/09/24 04:20:33;;;;;;;10.40;7.17;;;12.30;99.90;;;;;;4908998;29;20483;-73
2022/09/24 04:23:01;;;;;;;13.57;6.90;;;12.30;99.90;;;;;;4909106;29;20537;-73
2022/09/24 04:25:30;;;;;;;8.40;6.47;;;12.20;99.90;;;;;;4908611;29;20506;-73
2022/09/24 04:27:58;;;;;;;9.47;7.07;;;12.20;99.90;;;;;;4908936;29;20463;-73
2022/09/24 04:30:26;;;;;;;7.83;6.90;;;12.20;99.90;;;;;;4909741;29;20463;-73
2022/09/24 04:32:53;;;;;;;7.27;6.57;;;12.20;99.90;;;;;;4908768;29;20459;-73
2022/09/24 04:35:23;;;;;;;9.37;6.90;;;12.20;99.90;;;;;;4908133;29;20956;-73
2022/09/24 04:37:50;;;;;;;8.97;7.63;;;12.20;99.90;;;;;;4909444;29;20546;-73
2022/09/24 04:40:17;;;;;;;8.47;6.10;;;12.20;99.90;;;;;;4908971;29;20466;-73
2022/09/24 04:42:45;;;;;;;7.63;6.83;;;12.20;99.90;;;;;;4909068;29;20467;-73
2022/09/24 04:45:14;;;;;;;8.17;6.77;;;12.10;99.90;;;;;;4909875;29;20935;-73
2022/09/24 04:47:40;;;;;;;7.30;6.50;;;12.20;99.90;;;;;;4912581;29;21034;-73
2022/09/24 04:50:10;;;;;;;8.07;7.03;;;12.20;99.90;;;;;;4912618;29;20455;-73
2022/09/24 04:52:38;;;;;;;8.20;6.13;;;12.20;99.90;;;;;;4912780;29;20553;-72
2022/09/24 04:55:06;;;;;;;8.40;6.57;;;12.20;99.90;;;;;;4912254;29;20471;-73
2022/09/24 04:57:35;;;;;;;10.10;7.10;;;12.10;99.90;;;;;;4912985;29;20458;-73
2022/09/24 05:00:04;;;;;;;7.40;6.70;;;12.10;99.90;;;;;;4912899;29;20471;-73
2022/09/24 05:02:32;;;;;;;9.63;7.13;;;12.10;99.90;;;;;;4912620;29;21180;-73
2022/09/24 05:04:59;;;;;;;6.90;6.23;;;12.10;99.90;;;;;;4912103;29;20549;-73
2022/09/24 05:07:25;;;;;;;7.20;6.50;;;12.10;99.90;;;;;;4912434;29;20955;-73
2022/09/24 05:09:53;;;;;;;8.63;7.80;;;12.20;99.90;;;;;;4912423;29;20493;-73
2022/09/24 05:12:20;;;;;;;8.00;7.07;;;12.10;99.90;;;;;;4912578;29;20490;-73
2022/09/24 05:14:47;;;;;;;7.80;7.10;;;12.20;99.90;;;;;;4915169;29;20475;-78
2022/09/24 05:17:14;;;;;;;8.90;6.90;;;12.10;99.90;;;;;;4917557;29;20463;-78
2022/09/24 05:19:41;;;;;;;8.57;7.77;;;12.10;99.90;;;;;;4918998;29;21200;-78
2022/09/24 05:22:08;;;;;;;10.20;7.23;;;12.20;99.90;;;;;;4919552;29;20490;-78
2022/09/24 05:24:35;;;;;;;8.93;6.70;;;12.10;99.90;;;;;;4918598;29;20494;-78
2022/09/24 05:27:09;;;;;;;7.67;6.90;;;12.10;99.90;;;;;;4918840;29;20832;-78
2022/09/24 05:29:36;;;;;;;8.83;7.40;;;12.10;99.90;;;;;;4922745;29;20495;-79
2022/09/24 05:32:04;;;;;;;9.07;7.77;;;12.10;99.90;;;;;;4928127;29;20482;-79
2022/09/24 05:34:31;;;;;;;13.33;9.30;;;12.10;99.90;;;;;;4927076;29;20866;-79
2022/09/24 05:36:58;;;;;;;10.27;8.27;;;12.20;99.90;;;;;;4927515;29;20963;-79
2022/09/24 05:39:26;;;;;;;8.33;7.53;;;12.10;99.90;;;;;;4926947;29;20470;-79
2022/09/24 05:41:52;;;;;;;7.67;6.87;;;12.10;99.90;;;;;;4927124;29;20477;-79
2022/09/24 05:44:21;;;;;;;9.40;7.27;;;12.10;99.90;;;;;;4927538;29;20518;-79
2022/09/24 05:46:48;;;;;;;9.83;7.33;;;12.20;99.90;;;;;;4927884;29;20482;-78
2022/09/24 05:49:14;;;;;;;14.60;7.00;;;12.10;99.90;;;;;;4922552;29;20458;-79
2022/09/24 05:51:41;;;;;;;8.10;7.30;;;12.10;99.90;;;;;;4921537;29;20471;-78
2022/09/24 05:54:09;;;;;;;8.20;7.40;;;12.10;99.90;;;;;;4923157;29;20462;-79
2022/09/24 05:56:36;;;;;;;7.93;7.13;;;12.10;99.90;;;;;;4923420;29;20518;-78
2022/09/24 05:59:03;;;;;;;12.60;6.93;;;12.10;99.90;;;;;;4923832;29;20474;-79
2022/09/24 06:01:31;;;;;;;8.23;7.40;;;12.10;99.90;;;;;;4923236;29;20505;-78
2022/09/24 06:03:58;;;;;;;14.57;8.43;;;12.10;99.90;;;;;;4925379;29;20507;-80
2022/09/24 06:06:26;;;;;;;7.80;7.00;;;12.00;99.90;;;;;;4926540;29;20465;-78
2022/09/24 06:08:53;;;;;;;12.00;7.03;;;12.10;99.90;;;;;;4916622;29;20463;-72
2022/09/24 06:11:21;;;;;;;12.63;9.70;;;12.10;99.90;;;;;;4917201;29;20491;-79
2022/09/24 06:13:48;;;;;;;9.70;8.33;;;12.10;99.90;;;;;;4924443;29;20467;-79
2022/09/24 06:16:15;;;;;;;11.27;10.10;;;12.20;99.90;;;;;;4924705;29;20469;-79
2022/09/24 06:18:44;;;;;;;12.07;9.10;;;12.20;99.90;;;;;;4925248;29;20469;-79
2022/09/24 06:21:12;;;;;;;11.40;8.70;;;12.20;99.90;;;;;;4920314;29;20531;-78
2022/09/24 06:23:40;;;;;;;10.60;8.23;;;12.20;99.90;;;;;;4919059;29;20463;-79
2022/09/24 06:26:09;;;;;;;11.67;8.60;;;12.20;99.90;;;;;;4919681;29;20502;-79
2022/09/24 06:28:37;;;;;;;9.70;8.33;;;12.20;99.90;;;;;;4923859;29;20447;-79
2022/09/24 06:31:05;;;;;;;9.90;7.83;;;12.30;99.90;;;;;;4922545;29;20463;-79
2022/09/24 06:33:32;;;;;;;9.00;7.60;;;12.30;99.90;;;;;;4923045;29;20922;-79
2022/09/24 06:36:03;;;;;;;9.90;8.00;;;12.30;99.90;;;;;;4923771;29;20546;-80
2022/09/24 06:38:30;;;;;;;12.20;8.73;;;12.30;99.90;;;;;;4923794;29;20859;-79
2022/09/24 06:40:59;;;;;;;10.23;8.17;;;12.40;99.90;;;;;;4922320;29;20494;-80
2022/09/24 06:43:26;;;;;;;11.80;9.73;;;12.40;99.90;;;;;;4920905;29;20463;-79
2022/09/24 06:45:55;;;;;;;10.70;8.33;;;12.40;99.90;;;;;;4921935;29;20527;-79
2022/09/24 06:48:23;;;;;;;10.63;8.10;;;12.40;99.90;;;;;;4919688;29;20470;-79
2022/09/24 06:50:50;;;;;;;10.33;8.80;;;12.50;99.90;;;;;;4921851;29;20562;-79
2022/09/24 06:53:18;;;;;;;9.57;7.53;;;12.50;99.90;;;;;;4919238;29;20505;-78
2022/09/24 06:55:45;;;;;;;9.13;7.57;;;12.50;99.90;;;;;;4914884;29;20494;-78
2022/09/24 06:58:14;;;;;;;10.10;8.40;;;12.60;99.90;;;;;;4914861;29;20667;-79
2022/09/24 07:00:42;;;;;;;12.20;8.63;;;12.60;99.90;;;;;;4923167;29;20487;-80
2022/09/24 07:03:15;;;;;;;10.27;8.60;;;12.60;99.90;;;;;;4919990;29;20454;-75
2022/09/24 07:05:42;;;;;;;9.40;8.40;;;12.50;99.90;;;;;;4914702;29;20942;-82
2022/09/24 07:08:08;;;;;;;9.27;7.50;;;12.60;99.90;;;;;;4923226;29;20467;-79
2022/09/24 07:10:38;;;;;;;8.23;7.13;;;12.60;99.90;;;;;;4926168;29;20598;-78
2022/09/24 07:13:05;;;;;;;11.53;7.60;;;12.60;99.90;;;;;;4926272;29;20470;-78
2022/09/24 07:15:32;;;;;;;11.23;7.40;;;12.60;99.90;;;;;;4921943;29;20462;-78
2022/09/24 07:17:58;;;;;;;9.87;8.00;;;12.60;99.90;;;;;;4925564;29;20474;-78
2022/09/24 07:20:27;;;;;;;9.33;7.50;;;12.60;99.90;;;;;;4926005;29;20864;-78
2022/09/24 07:22:54;;;;;;;8.40;7.33;;;12.70;99.90;;;;;;4926860;29;20529;-79
2022/09/24 07:25:20;;;;;;;11.20;7.60;;;12.70;99.90;;;;;;4927803;29;20506;-79
2022/09/24 07:27:49;;;;;;;10.17;8.20;;;12.80;99.90;;;;;;4927783;29;20451;-78
2022/09/24 07:30:16;;;;;;;11.20;7.97;;;12.80;99.90;;;;;;4928266;29;20465;-78
2022/09/24 07:32:42;;;;;;;12.00;8.70;;;12.90;99.90;;;;;;4927857;29;20446;-79
2022/09/24 07:35:09;;;;;;;11.63;8.73;;;12.90;99.90;;;;;;4922684;29;20486;-79
2022/09/24 07:37:36;;;;;;;9.70;8.70;;;13.00;99.90;;;;;;4926433;29;20485;-78
2022/09/24 07:40:03;;;;;;;8.53;7.57;;;13.10;99.90;;;;;;4924987;29;20486;-80
2022/09/24 07:42:30;;;;;;;8.60;7.70;;;13.10;99.90;;;;;;4915969;29;20985;-77
2022/09/24 07:44:59;;;;;;;10.57;8.70;;;13.20;99.90;;;;;;4916852;29;20501;-80
2022/09/24 07:47:26;;;;;;;10.10;7.83;;;13.30;99.90;;;;;;4928179;29;20451;-79
2022/09/24 07:49:53;;;;;;;11.27;8.47;;;13.40;99.90;;;;;;4916986;29;20459;-79
2022/09/24 07:52:19;;;;;;;15.40;9.87;;;13.50;99.90;;;;;;4917369;29;20483;-79
2022/09/24 07:54:46;;;;;;;12.33;9.37;;;13.50;99.90;;;;;;4913303;29;20455;-80
2022/09/24 07:57:13;;;;;;;12.17;8.70;;;13.50;99.90;;;;;;4913841;29;20897;-79
2022/09/24 07:59:43;;;;;;;18.90;11.23;;;13.50;99.90;;;;;;4913690;29;20459;-80
2022/09/24 08:02:16;;;;;;;26.50;11.07;;;13.50;99.90;;;;;;4912313;29;21342;-80
2022/09/24 08:04:43;;;;;;;20.17;9.77;;;13.60;99.90;;;;;;4912778;29;21485;-80
2022/09/24 08:07:11;;;;;;;16.20;10.13;;;13.60;99.90;;;;;;4914112;29;20455;-80
2022/09/24 08:09:38;;;;;;;13.10;10.00;;;13.60;99.90;;;;;;4914539;29;20463;-82
2022/09/24 08:12:05;;;;;;;12.73;9.77;;;13.60;99.90;;;;;;4914474;29;20486;-78
2022/09/24 08:14:32;;;;;;;12.40;9.60;;;13.60;99.90;;;;;;4913001;29;20475;-79
2022/09/24 08:17:00;;;;;;;17.00;9.37;;;13.60;99.90;;;;;;4913240;29;20912;-79
2022/09/24 08:19:30;;;;;;;14.53;10.43;;;13.60;99.90;;;;;;4913715;29;21028;-82
2022/09/24 08:21:57;;;;;;;9.80;8.77;;;13.60;99.90;;;;;;4914365;29;20487;-82
2022/09/24 08:24:24;;;;;;;16.03;9.80;;;13.60;99.90;;;;;;4915546;29;20475;-79
2022/09/24 08:26:51;;;;;;;13.87;9.57;;;13.70;99.90;;;;;;4920111;29;20956;-82
2022/09/24 08:29:18;;;;;;;13.30;9.60;;;13.70;99.90;;;;;;4919099;29;20473;-82
2022/09/24 08:31:45;;;;;;;11.90;8.80;;;13.70;99.90;;;;;;4916755;29;20849;-82
2022/09/24 08:34:11;;;;;;;16.00;10.00;;;13.70;99.90;;;;;;4912692;29;20467;-81
2022/09/24 08:36:39;;;;;;;11.77;10.57;;;13.70;99.90;;;;;;4911916;29;20955;-80
2022/09/24 08:39:07;;;;;;;13.77;10.97;;;13.70;99.90;;;;;;4913804;29;20460;-79
2022/09/24 08:41:49;;;;;;;12.70;10.30;;;13.70;99.90;;;;;;4914447;29;20527;-83
2022/09/24 08:47:22;;;;;;;13.30;11.17;;;13.80;99.90;;;;;;4913691;29;20546;-83
2022/09/24 08:49:55;;;;;;;16.27;10.27;;;13.80;99.90;;;;;;4913149;29;20472;-81
2022/09/24 08:52:37;;;;;;;11.13;10.00;;;13.90;99.90;;;;;;4915008;29;20506;-83
2022/09/24 08:55:07;;;;;;;10.73;9.30;;;13.90;99.90;;;;;;4914238;29;20458;-80
2022/09/24 08:57:40;;;;;;;14.13;10.47;;;14.00;99.90;;;;;;4915528;29;20470;-85
2022/09/24 09:00:13;;;;;;;11.83;10.53;;;14.10;99.90;;;;;;4917336;29;20979;-82
2022/09/24 09:02:45;;;;;;;12.43;10.33;;;14.20;99.90;;;;;;4918051;29;20460;-82
2022/09/24 09:05:23;;;;;;;14.67;10.87;;;14.20;99.90;;;;;;4915542;29;21004;-81
2022/09/24 09:08:00;;;;;;;15.00;11.70;;;14.20;99.90;;;;;;4917034;29;20984;-82
2022/09/24 09:10:32;;;;;;;15.07;10.37;;;14.40;99.90;;;;;;4916454;29;20471;-81
2022/09/24 09:13:07;;;;;;;18.43;11.77;;;14.50;99.90;;;;;;4917306;29;20448;-82
2022/09/24 09:15:38;;;;;;;13.47;11.20;;;14.50;99.90;;;;;;4914769;29;20463;-81
2022/09/24 09:18:13;;;;;;;15.70;11.10;;;14.50;99.90;;;;;;4915517;29;20976;-78
2022/09/24 09:20:42;;;;;;;16.53;11.20;;;14.50;99.90;;;;;;4913724;29;20482;-82
2022/09/24 09:23:16;;;;;;;15.37;12.10;;;14.60;99.90;;;;;;4913371;29;20467;-82
2022/09/24 09:25:51;;;;;;;14.03;11.97;;;14.70;99.90;;;;;;4914437;29;20494;-75
2022/09/24 09:28:18;;;;;;;14.07;11.20;;;14.70;99.90;;;;;;4912867;29;20558;-76
2022/09/24 09:30:59;;;;;;;14.00;10.83;;;14.80;99.90;;;;;;4914000;29;20495;-82
2022/09/24 09:33:43;;;;;;;15.47;11.60;;;15.10;99.90;;;;;;4914358;29;20471;-78
2022/09/24 09:36:27;;;;;;;15.43;11.90;;;15.20;99.90;;;;;;4919926;29;20486;-81
2022/09/24 09:39:04;;;;;;;17.30;11.50;;;15.30;99.90;;;;;;4919211;29;20458;-83
2022/09/24 09:41:36;;;;;;;14.10;12.30;;;15.40;99.90;;;;;;4919801;29;20489;-83
2022/09/24 09:44:13;;;;;;;14.47;11.10;;;15.50;99.90;;;;;;4918985;29;20474;-83
2022/09/24 09:46:46;;;;;;;13.80;11.20;;;15.60;99.90;;;;;;4919282;29;20498;-83
2022/09/24 09:49:14;;;;;;;13.03;11.57;;;15.90;99.90;;;;;;4917629;29;20463;-83
2022/09/24 09:51:43;;;;;;;14.20;10.50;;;16.10;99.90;;;;;;4917931;29;20573;-83
2022/09/24 09:54:11;;;;;;;13.53;11.30;;;16.30;99.90;;;;;;4918069;29;20469;-83
2022/09/24 09:56:43;;;;;;;12.90;11.53;;;16.40;99.90;;;;;;4918700;29;20510;-84
2022/09/24 09:59:17;;;;;;;14.80;11.07;;;16.50;99.90;;;;;;4918197;29;20456;-82
2022/09/24 10:01:47;;;;;;;13.50;10.80;;;16.80;99.90;;;;;;4916452;29;20495;-84
2022/09/24 10:04:39;;;;;;;17.37;11.23;;;16.90;99.90;;;;;;4916744;29;20463;-84
2022/09/24 10:07:08;;;;;;;15.50;10.90;;;17.20;99.90;;;;;;4899594;29;20519;-82
2022/09/24 10:09:37;;;;;;;12.70;10.53;;;17.10;99.90;;;;;;4914263;29;20469;-83
2022/09/24 10:12:15;;;;;;;13.50;10.17;;;17.20;99.90;;;;;;4914610;29;20834;-82
2022/09/24 10:14:43;;;;;;;12.37;10.37;;;17.20;99.90;;;;;;4913592;29;20438;-83
2022/09/24 10:17:13;;;;;;;12.97;9.33;;;17.20;99.90;;;;;;4914264;29;20467;-83
2022/09/24 10:19:42;;;;;;;11.03;9.83;;;17.10;99.90;;;;;;4914845;29;20484;-81
2022/09/24 10:22:18;;;;;;;10.27;9.27;;;17.10;99.90;;;;;;4919324;29;20487;-83
2022/09/24 10:24:46;;;;;;;10.60;9.53;;;17.10;99.90;;;;;;4919644;29;20920;-82
2022/09/24 10:27:18;;;;;;;17.03;11.17;;;17.00;99.90;;;;;;4918716;29;20502;-82
2022/09/24 10:32:29;;;;;;;11.93;10.73;;;17.20;99.90;;;;;;4932319;29;20470;-81
2022/09/24 10:34:58;;;;;;;13.13;10.70;;;17.20;99.90;;;;;;4921284;29;20464;-82
2022/09/24 10:37:25;;;;;;;17.00;11.10;;;17.20;99.90;;;;;;4919129;29;20463;-82
2022/09/24 10:39:59;;;;;;;15.33;10.30;;;17.10;99.90;;;;;;4918912;29;20467;-82
2022/09/24 10:42:27;;;;;;;13.93;11.07;;;17.10;99.90;;;;;;4919808;29;20577;-82
2022/09/24 10:44:55;;;;;;;14.67;9.90;;;17.10;99.90;;;;;;4919599;29;20460;-82
2022/09/24 10:47:36;;;;;;;12.80;10.33;;;17.10;99.90;;;;;;4919941;29;20499;-82
2022/09/24 10:50:24;;;;;;;13.40;10.30;;;17.10;99.90;;;;;;4933480;29;20522;-82
2022/09/24 10:52:53;;;;;;;12.60;10.50;;;17.10;99.90;;;;;;4930661;29;20463;-82
2022/09/24 10:55:39;;;;;;;13.23;10.13;;;17.20;99.90;;;;;;4915717;29;20459;-82
2022/09/24 10:58:24;;;;;;;12.00;10.03;;;17.20;99.90;;;;;;4916886;29;20453;-82
2022/09/24 11:01:01;;;;;;;12.03;9.67;;;17.20;99.90;;;;;;4917976;29;21076;-82
2022/09/24 11:03:54;;;;;;;12.80;9.80;;;17.20;99.90;;;;;;4916247;29;20457;-82
2022/09/24 11:06:39;;;;;;;12.60;10.00;;;17.20;99.90;;;;;;4915177;29;21134;-82
2022/09/24 11:09:24;;;;;;;17.07;10.03;;;17.20;99.90;;;;;;4916810;29;20482;-82
2022/09/24 11:12:04;;;;;;;14.50;9.53;;;17.20;99.90;;;;;;4916236;29;21059;-82
2022/09/24 11:15:01;;;;;;;10.47;9.37;;;17.20;99.90;;;;;;4916112;29;20451;-83
2022/09/24 11:17:37;;;;;;;11.80;10.10;;;17.20;99.90;;;;;;4915933;29;20559;-82
2022/09/24 11:20:14;;;;;;;11.70;10.50;;;17.30;99.90;;;;;;4916647;29;20443;-82
2022/09/24 11:23:07;;;;;;;13.43;11.23;;;17.30;99.90;;;;;;4916288;29;20467;-82
2022/09/24 11:25:40;;;;;;;13.03;11.60;;;17.30;99.90;;;;;;4915538;29;20584;-82
2022/09/24 11:28:23;;;;;;;14.30;11.53;;;17.40;99.90;;;;;;4916218;29;20541;-82
2022/09/24 11:31:00;;;;;;;14.67;11.70;;;17.40;99.90;;;;;;4917277;29;20924;-82
2022/09/24 11:33:36;;;;;;;16.67;11.60;;;17.50;99.90;;;;;;4916240;29;20826;-82
2022/09/24 11:36:15;;;;;;;14.20;11.80;;;17.50;99.90;;;;;;4915215;29;20454;-82
2022/09/24 11:39:02;;;;;;;13.50;12.07;;;17.60;99.90;;;;;;4916183;29;20459;-82
2022/09/24 11:41:39;;;;;;;15.30;11.87;;;17.60;99.90;;;;;;4916812;29;20483;-83
2022/09/24 11:44:32;;;;;;;14.57;11.43;;;17.70;99.90;;;;;;4915999;29;20454;-83
2022/09/24 11:47:14;;;;;;;13.07;11.67;;;17.80;99.90;;;;;;4916025;29;20495;-83
2022/09/24 11:49:52;;;;;;;15.50;12.70;;;17.80;99.90;;;;;;4916536;29;20450;-83
2022/09/24 11:52:27;;;;;;;16.00;11.67;;;17.90;99.90;;;;;;4915778;29;20491;-83
2022/09/24 11:55:02;;;;;;;12.70;11.30;;;17.80;99.90;;;;;;4915182;29;20462;-83
2022/09/24 11:57:33;;;;;;;14.80;11.37;;;17.80;99.90;;;;;;4917002;29;20463;-83
2022/09/24 12:00:06;;;;;;;13.07;10.97;;;17.80;99.90;;;;;;4915296;29;20459;-83
2022/09/24 12:02:37;;;;;;;16.13;11.63;;;17.80;99.90;;;;;;4916390;29;20501;-83
2022/09/24 12:05:07;;;;;;;14.10;10.17;;;17.90;99.90;;;;;;4915615;29;20470;-83
2022/09/24 12:07:40;;;;;;;12.37;10.90;;;18.00;99.90;;;;;;4915731;29;20502;-83
2022/09/24 12:10:24;;;;;;;16.67;10.90;;;18.10;99.90;;;;;;4915691;29;20476;-83
2022/09/24 12:12:54;;;;;;;14.80;11.97;;;18.10;99.90;;;;;;4916397;29;20461;-83
2022/09/24 12:15:24;;;;;;;13.10;11.73;;;18.10;99.90;;;;;;4915195;29;20459;-83
2022/09/24 12:17:56;;;;;;;14.67;12.30;;;18.00;99.90;;;;;;4915654;29;20928;-83
2022/09/24 12:20:27;;;;;;;14.63;12.17;;;18.00;99.90;;;;;;4915673;29;20483;-83
2022/09/24 12:22:59;;;;;;;13.90;12.00;;;18.00;99.90;;;;;;4916339;29;20448;-83
2022/09/24 12:25:28;;;;;;;14.53;12.07;;;18.10;99.90;;;;;;4916230;29;20466;-83
2022/09/24 12:27:57;;;;;;;14.60;10.20;;;18.10;99.90;;;;;;4914043;29;21023;-83
2022/09/24 12:33:32;;;;;;;13.23;10.23;;;18.20;99.90;;;;;;4917648;29;20435;-83
2022/09/24 12:36:05;;;;;;;11.27;9.00;;;18.30;99.90;;;;;;4916375;29;20989;-83
2022/09/24 12:38:37;;;;;;;13.90;10.20;;;18.60;99.90;;;;;;4916657;29;20968;-83
2022/09/24 12:41:21;;;;;;;12.73;11.13;;;18.50;99.90;;;;;;4917513;29;20490;-82
2022/09/24 12:43:52;;;;;;;13.60;9.97;;;18.50;99.90;;;;;;4916822;29;20459;-84
2022/09/24 12:46:22;;;;;;;14.23;10.17;;;18.40;99.90;;;;;;4917563;29;20491;-83
2022/09/24 12:48:51;;;;;;;14.60;9.50;;;18.30;99.90;;;;;;4917432;29;20458;-83
2022/09/24 12:51:21;;;;;;;17.63;10.80;;;18.20;99.90;;;;;;4917391;29;21014;-83
2022/09/24 12:53:58;;;;;;;15.40;9.13;;;18.20;99.90;;;;;;4917484;29;21031;-83
2022/09/24 12:56:28;;;;;;;10.43;9.33;;;18.10;99.90;;;;;;4918270;29;20439;-83
2022/09/24 12:58:55;;;;;;;10.97;9.70;;;18.00;99.90;;;;;;4917748;29;20463;-83
2022/09/24 13:01:32;;;;;;;9.90;8.57;;;18.00;99.90;;;;;;4917095;29;20519;-83
2022/09/24 13:04:27;;;;;;;11.63;9.70;;;17.90;99.90;;;;;;4917229;29;20490;-83
2022/09/24 13:06:54;;;;;;;12.83;10.30;;;17.90;99.90;;;;;;4911944;29;20505;-83
2022/09/24 13:09:35;;;;;;;13.37;11.60;;;17.80;99.90;;;;;;4921105;29;20463;-83
2022/09/24 13:12:18;;;;;;;18.20;13.40;;;17.70;99.90;;;;;;4921800;29;20482;-83
2022/09/24 13:14:50;;;;;;;17.27;13.80;;;17.60;99.90;;;;;;4921023;29;20466;-83
2022/09/24 13:17:18;;;;;;;16.43;14.57;;;17.50;99.90;;;;;;4922414;29;20460;-83
2022/09/24 13:19:47;;;;;;;17.47;14.60;;;17.50;99.90;;;;;;4922234;29;20459;-83
2022/09/24 13:22:22;;;;;;;16.47;13.57;;;17.40;99.90;;;;;;4921803;29;20574;-83
2022/09/24 13:24:51;;;;;;;19.23;13.90;;;17.30;99.90;;;;;;4921917;29;20889;-83
2022/09/24 13:27:23;;;;;;;19.03;14.17;;;17.30;99.90;;;;;;4921289;29;20863;-83
2022/09/24 13:30:03;;;;;;;17.90;13.23;;;17.30;99.90;;;;;;4920945;29;20466;-83
2022/09/24 13:32:35;;;;;;;19.60;14.43;;;17.30;99.90;;;;;;4922534;29;20573;-83
2022/09/24 13:35:09;;;;;;;19.40;15.97;;;17.30;99.90;;;;;;4922030;29;20566;-83
2022/09/24 13:37:42;;;;;;;16.30;13.73;;;17.30;99.90;;;;;;4922103;29;20844;-83
2022/09/24 13:40:19;;;;;;;18.33;16.43;;;17.30;99.90;;;;;;4922854;29;20466;-83
2022/09/24 13:42:50;;;;;;;19.13;16.13;;;17.30;99.90;;;;;;4923270;29;20466;-83
2022/09/24 13:45:20;;;;;;;19.20;16.07;;;17.20;99.90;;;;;;4922772;29;20952;-83
2022/09/24 13:47:52;;;;;;;25.13;17.67;;;17.20;99.90;;;;;;4923120;29;20495;-83
2022/09/24 13:50:24;;;;;;;19.70;16.53;;;17.20;99.90;;;;;;4930076;29;20432;-83
2022/09/24 13:52:54;;;;;;;20.40;16.83;;;17.20;99.90;;;;;;4933309;29;20447;-83
2022/09/24 13:55:26;;;;;;;22.10;17.63;;;17.20;99.90;;;;;;4924708;29;20459;-83
2022/09/24 13:57:53;;;;;;;24.77;17.97;;;17.10;99.90;;;;;;4932958;29;20456;-83
2022/09/24 14:00:23;;;;;;;19.10;17.10;;;17.20;99.90;;;;;;4931021;29;20479;-83
2022/09/24 14:02:58;;;;;;;21.67;18.30;;;17.20;99.90;;;;;;4917017;29;21127;-83
2022/09/24 14:05:27;;;;;;;20.00;16.97;;;17.20;99.90;;;;;;4916225;29;20467;-83
2022/09/24 14:08:02;;;;;;;23.13;18.20;;;17.20;99.90;;;;;;4916911;29;20550;-83
2022/09/24 14:10:28;;;;;;;22.50;18.23;;;17.20;99.90;;;;;;4918300;29;20459;-83
2022/09/24 14:13:09;;;;;;;21.17;18.83;;;17.20;99.90;;;;;;4917770;29;20447;-83
2022/09/24 14:15:36;;;;;;;20.20;17.67;;;17.30;99.90;;;;;;4917409;29;20465;-83
2022/09/24 14:18:04;;;;;;;21.53;18.20;;;17.20;99.90;;;;;;4918444;29;20920;-82
2022/09/24 14:20:35;;;;;;;22.00;18.20;;;17.30;99.90;;;;;;4918879;29;20978;-82
2022/09/24 14:23:03;;;;;;;22.00;18.63;;;17.30;99.90;;;;;;4917739;29;20820;-82
2022/09/24 14:25:33;;;;;;;19.80;17.70;;;17.30;99.90;;;;;;4918097;29;20467;-82
2022/09/24 14:28:02;;;;;;;20.30;16.07;;;17.30;99.90;;;;;;4917565;29;20495;-82
2022/09/24 14:30:31;;;;;;;20.30;18.10;;;17.30;99.90;;;;;;4917562;29;20972;-82
2022/09/24 14:32:59;;;;;;;22.17;18.23;;;17.30;99.90;;;;;;4917842;29;20471;-82
2022/09/24 14:35:31;;;;;;;21.10;17.47;;;17.30;99.90;;;;;;4916139;29;20467;-82
2022/09/24 14:38:03;;;;;;;22.70;16.13;;;17.30;99.90;;;;;;4916832;29;20444;-83
2022/09/24 14:40:38;;;;;;;20.53;18.30;;;17.30;99.90;;;;;;4916975;29;20475;-84
2022/09/24 14:43:05;;;;;;;20.53;17.77;;;17.30;99.90;;;;;;4916070;29;20449;-82
2022/09/24 14:45:36;;;;;;;20.80;16.97;;;17.30;99.90;;;;;;4917123;29;20460;-82
2022/09/24 14:48:05;;;;;;;21.50;16.50;;;17.30;99.90;;;;;;4915750;29;20486;-82
2022/09/24 14:50:38;;;;;;;18.63;16.17;;;17.30;99.90;;;;;;4915930;29;20518;-82
2022/09/24 14:53:13;;;;;;;25.23;18.83;;;17.30;99.90;;;;;;4915891;29;20471;-82
2022/09/24 14:55:45;;;;;;;20.27;18.17;;;17.30;99.90;;;;;;4917348;29;20447;-82
2022/09/24 14:58:35;;;;;;;21.83;16.50;;;17.30;99.90;;;;;;4915841;29;20916;-82
2022/09/24 15:01:05;;;;;;;22.00;17.80;;;17.30;99.90;;;;;;4917439;29;20491;-82
2022/09/24 15:03:38;;;;;;;26.20;19.10;;;17.30;99.90;;;;;;4918857;29;21031;-83
2022/09/24 15:06:20;;;;;;;18.90;16.87;;;17.30;99.90;;;;;;4928152;29;20446;-82
2022/09/24 15:08:54;;;;;;;21.67;17.50;;;17.30;99.90;;;;;;4941110;29;20502;-82
2022/09/24 15:11:26;;;;;;;21.00;17.23;;;17.30;99.90;;;;;;4939455;29;20482;-82
2022/09/24 15:13:59;;;;;;;22.20;18.00;;;17.30;99.90;;;;;;4940189;29;20467;-82
2022/09/24 15:16:30;;;;;;;20.80;18.17;;;17.30;99.90;;;;;;4941699;29;20911;-82
2022/09/24 15:19:09;;;;;;;21.87;18.07;;;17.30;99.90;;;;;;4950531;29;20458;-82
2022/09/24 15:21:38;;;;;;;20.53;18.27;;;17.30;99.90;;;;;;4951013;29;20872;-82
2022/09/24 15:24:05;;;;;;;22.33;18.13;;;17.30;99.90;;;;;;4949131;29;20454;-82
2022/09/24 15:26:34;;;;;;;22.83;17.90;;;17.30;99.90;;;;;;4946732;29;20470;-82
2022/09/24 15:29:01;;;;;;;26.37;19.07;;;17.20;99.90;;;;;;4940427;29;20453;-78
2022/09/24 15:31:29;;;;;;;22.33;18.85;;;17.20;99.90;;;;;;4937582;29;21137;-79
2022/09/24 15:33:55;;;;;;;22.93;18.30;;;17.20;99.90;;;;;;4936308;29;20226;-81
2022/09/24 15:36:23;;;;;;;23.17;18.87;;;17.30;99.90;;;;;;4936583;29;20462;-79
2022/09/24 15:38:52;;;;;;;20.73;18.50;;;17.30;99.90;;;;;;4932586;29;20457;-80
2022/09/24 15:41:19;;;;;;;22.87;17.70;;;17.30;99.90;;;;;;4935366;29;20470;-80
2022/09/24 15:43:46;;;;;;;23.30;18.40;;;17.30;99.90;;;;;;4936727;29;20466;-80
2022/09/24 15:46:13;;;;;;;20.17;16.40;;;17.30;99.90;;;;;;4934406;29;20465;-80
2022/09/24 15:48:40;;;;;;;20.10;17.13;;;17.30;99.90;;;;;;4936346;29;20528;-79
2022/09/24 15:51:10;;;;;;;24.73;19.63;;;17.30;99.90;;;;;;4937701;29;20510;-82
2022/09/24 15:53:36;;;;;;;24.50;19.80;;;17.30;99.90;;;;;;4937022;29;20480;-82
2022/09/24 15:56:06;;;;;;;26.30;19.27;;;17.20;99.90;;;;;;4934805;29;20458;-81
2022/09/24 15:58:33;;;;;;;22.20;19.33;;;17.30;99.90;;;;;;4935817;29;20461;-80
2022/09/24 16:01:00;;;;;;;25.70;19.93;;;17.30;99.90;;;;;;4935484;29;20525;-80
2022/09/24 16:03:29;;;;;;;24.30;20.97;;;17.30;99.90;;;;;;4935031;29;20930;-78
2022/09/24 16:05:57;;;;;;;23.60;20.43;;;17.20;99.90;;;;;;4934323;29;20471;-81
2022/09/24 16:08:25;;;;;;;31.17;21.63;;;17.20;99.90;;;;;;4935430;29;20990;-80
2022/09/24 16:10:52;;;;;;;25.47;20.17;;;17.20;99.90;;;;;;4932985;29;20691;-79
2022/09/24 16:13:22;;;;;;;25.23;21.37;;;17.20;99.90;;;;;;4931838;29;20474;-77
2022/09/24 16:15:49;;;;;;;25.00;20.90;;;17.20;99.90;;;;;;4932988;29;20470;-81
2022/09/24 16:18:17;;;;;;;27.27;22.80;;;17.30;99.90;;;;;;4934301;29;20489;-80
2022/09/24 16:20:46;;;;;;;26.30;22.80;;;17.30;99.90;;;;;;4934854;29;20485;-81
2022/09/24 16:23:14;;;;;;;28.80;19.83;;;17.30;99.90;;;;;;4934734;29;20455;-80
2022/09/24 16:25:42;;;;;;;26.90;21.70;;;17.30;99.90;;;;;;4934121;29;20910;-81
2022/09/24 16:28:09;;;;;;;30.33;22.50;;;17.30;99.90;;;;;;4934101;29;20494;-80
2022/09/24 16:30:38;;;;;;;28.03;23.30;;;17.30;99.90;;;;;;4934237;29;20518;-77
2022/09/24 16:33:05;;;;;;;26.23;22.00;;;17.30;99.90;;;;;;4929231;29;20462;-79
2022/09/24 16:35:31;;;;;;;29.23;22.37;;;17.30;99.90;;;;;;4931622;29;20455;-78
2022/09/24 16:37:58;;;;;;;30.30;23.43;;;17.30;99.90;;;;;;4933647;29;20830;-80
2022/09/24 16:40:25;;;;;;;26.17;22.07;;;17.30;99.90;;;;;;4934376;29;20465;-78
2022/09/24 16:42:52;;;;;;;25.83;21.03;;;17.20;99.90;;;;;;4938173;29;20458;-78
2022/09/24 16:45:18;;;;;;;28.93;22.90;;;17.20;99.90;;;;;;4935489;29;20462;-82
2022/09/24 16:47:47;;;;;;;23.27;19.70;;;17.20;99.90;;;;;;4936713;29;20493;-81
2022/09/24 16:50:14;;;;;;;24.67;21.80;;;17.20;99.90;;;;;;4937703;29;20465;-76
2022/09/24 16:52:41;;;;;;;30.07;23.37;;;17.20;99.90;;;;;;4938524;29;20462;-81
2022/09/24 16:55:09;;;;;;;24.87;20.70;;;17.10;99.90;;;;;;4937409;29;20533;-81
2022/09/24 16:57:36;;;;;;;29.77;23.17;;;17.10;99.90;;;;;;4940945;29;20999;-82
2022/09/24 17:00:04;;;;;;;27.40;22.30;;;17.10;99.90;;;;;;4941557;29;20469;-81